CSD6 weather

Baie-Comeau Seaplane Base
Baie-Comeau, Quebec, Canada

Public forecast

Using degrees Celsius for public forecast. Weather courtesy of forecast.io.

METAR (pilot weather report)

Closest report is Baie Comeau Airport, 6.9 nm (12.7 km) SE. Retrieved 2019/05/23 10:00 UTC (31 minutes ago):

CYBC 231000Z AUTO 32004KT 9SM BKN190 04/02 A3020 RMK SLP228

TAF (pilot weather forecast)

Closest forecast is Baie Comeau Airport, 6.9 nm (12.7 km) SE. Retrieved 2019/05/23 08:00 UTC (3 hours ago):

TAF CYBC 230738Z 2308/2320 VRB03KT P6SM SCT200 FM231100 VRB03KT P6SM BKN200 BECMG 2312/2314 10007KT FM231800 10007KT P6SM FEW150 RMK FCST BASED ON AUTO OBS. NXT FCST BY 231400Z